sensor_id;sensor_type;location;lat;lon;timestamp;P1;durP1;ratioP1;P2;durP2;ratioP2
25780;SDS011;13626;48.128;11.628;2023-04-06T00:00:14;9.27;;;6.45;;
25780;SDS011;13626;48.128;11.628;2023-04-06T00:02:42;13.07;;;6.85;;
25780;SDS011;13626;48.128;11.628;2023-04-06T00:05:09;11.57;;;6.65;;
25780;SDS011;13626;48.128;11.628;2023-04-06T00:07:36;10.73;;;7.05;;
25780;SDS011;13626;48.128;11.628;2023-04-06T00:10:04;11.48;;;6.82;;
25780;SDS011;13626;48.128;11.628;2023-04-06T00:12:31;10.98;;;6.93;;
25780;SDS011;13626;48.128;11.628;2023-04-06T00:14:58;10.43;;;7.40;;
25780;SDS011;13626;48.128;11.628;2023-04-06T00:17:27;9.00;;;6.13;;
25780;SDS011;13626;48.128;11.628;2023-04-06T00:19:54;9.85;;;6.25;;
25780;SDS011;13626;48.128;11.628;2023-04-06T00:22:22;10.32;;;5.85;;
25780;SDS011;13626;48.128;11.628;2023-04-06T00:24:49;11.82;;;6.40;;
25780;SDS011;13626;48.128;11.628;2023-04-06T00:27:16;11.57;;;6.32;;
25780;SDS011;13626;48.128;11.628;2023-04-06T00:29:43;9.00;;;5.95;;
25780;SDS011;13626;48.128;11.628;2023-04-06T00:32:11;12.20;;;6.65;;
25780;SDS011;13626;48.128;11.628;2023-04-06T00:34:38;10.15;;;6.72;;
25780;SDS011;13626;48.128;11.628;2023-04-06T00:37:06;8.85;;;6.35;;
25780;SDS011;13626;48.128;11.628;2023-04-06T00:39:33;8.73;;;6.43;;
25780;SDS011;13626;48.128;11.628;2023-04-06T00:42:00;10.93;;;6.20;;
25780;SDS011;13626;48.128;11.628;2023-04-06T00:44:33;10.27;;;6.35;;
25780;SDS011;13626;48.128;11.628;2023-04-06T00:47:00;9.95;;;6.50;;
25780;SDS011;13626;48.128;11.628;2023-04-06T00:49:28;12.25;;;6.57;;
25780;SDS011;13626;48.128;11.628;2023-04-06T00:51:55;10.43;;;6.65;;
25780;SDS011;13626;48.128;11.628;2023-04-06T00:54:22;11.57;;;6.72;;
25780;SDS011;13626;48.128;11.628;2023-04-06T00:56:49;8.80;;;6.47;;
25780;SDS011;13626;48.128;11.628;2023-04-06T00:59:17;9.45;;;6.18;;
25780;SDS011;13626;48.128;11.628;2023-04-06T01:01:44;8.60;;;5.65;;
25780;SDS011;13626;48.128;11.628;2023-04-06T01:04:12;9.38;;;6.00;;
25780;SDS011;13626;48.128;11.628;2023-04-06T01:06:39;9.77;;;5.70;;
25780;SDS011;13626;48.128;11.628;2023-04-06T01:09:07;7.57;;;5.47;;
25780;SDS011;13626;48.128;11.628;2023-04-06T01:11:35;10.02;;;5.78;;
25780;SDS011;13626;48.128;11.628;2023-04-06T01:14:02;7.50;;;5.32;;
25780;SDS011;13626;48.128;11.628;2023-04-06T01:16:30;9.68;;;5.07;;
25780;SDS011;13626;48.128;11.628;2023-04-06T01:18:57;9.02;;;5.90;;
25780;SDS011;13626;48.128;11.628;2023-04-06T01:21:24;9.75;;;5.78;;
25780;SDS011;13626;48.128;11.628;2023-04-06T01:23:52;10.07;;;5.72;;
25780;SDS011;13626;48.128;11.628;2023-04-06T01:26:19;11.30;;;5.65;;
25780;SDS011;13626;48.128;11.628;2023-04-06T01:28:47;9.40;;;5.72;;
25780;SDS011;13626;48.128;11.628;2023-04-06T01:31:14;6.75;;;5.43;;
25780;SDS011;13626;48.128;11.628;2023-04-06T01:33:41;6.35;;;4.95;;
25780;SDS011;13626;48.128;11.628;2023-04-06T01:36:08;9.00;;;5.72;;
25780;SDS011;13626;48.128;11.628;2023-04-06T01:38:36;10.50;;;5.88;;
25780;SDS011;13626;48.128;11.628;2023-04-06T01:41:03;9.00;;;5.18;;
25780;SDS011;13626;48.128;11.628;2023-04-06T01:43:30;8.50;;;5.50;;
25780;SDS011;13626;48.128;11.628;2023-04-06T01:45:58;8.98;;;5.68;;
25780;SDS011;13626;48.128;11.628;2023-04-06T01:48:25;12.30;;;6.03;;
25780;SDS011;13626;48.128;11.628;2023-04-06T01:50:53;9.95;;;5.53;;
25780;SDS011;13626;48.128;11.628;2023-04-06T01:53:21;8.10;;;5.03;;
25780;SDS011;13626;48.128;11.628;2023-04-06T01:55:48;7.03;;;5.20;;
25780;SDS011;13626;48.128;11.628;2023-04-06T01:58:15;8.10;;;5.35;;
25780;SDS011;13626;48.128;11.628;2023-04-06T02:00:42;9.85;;;5.85;;
25780;SDS011;13626;48.128;11.628;2023-04-06T02:03:09;9.05;;;5.00;;
25780;SDS011;13626;48.128;11.628;2023-04-06T02:05:37;7.40;;;5.35;;
25780;SDS011;13626;48.128;11.628;2023-04-06T02:08:04;7.30;;;4.90;;
25780;SDS011;13626;48.128;11.628;2023-04-06T02:10:32;7.03;;;4.72;;
25780;SDS011;13626;48.128;11.628;2023-04-06T02:12:59;9.80;;;5.40;;
25780;SDS011;13626;48.128;11.628;2023-04-06T02:15:27;8.48;;;5.18;;
25780;SDS011;13626;48.128;11.628;2023-04-06T02:17:54;6.88;;;4.72;;
25780;SDS011;13626;48.128;11.628;2023-04-06T02:20:21;5.80;;;4.88;;
25780;SDS011;13626;48.128;11.628;2023-04-06T02:22:48;7.97;;;4.80;;
25780;SDS011;13626;48.128;11.628;2023-04-06T02:25:16;8.50;;;5.20;;
25780;SDS011;13626;48.128;11.628;2023-04-06T02:27:43;7.03;;;5.15;;
25780;SDS011;13626;48.128;11.628;2023-04-06T02:30:10;9.13;;;5.05;;
25780;SDS011;13626;48.128;11.628;2023-04-06T02:32:38;8.05;;;5.50;;
25780;SDS011;13626;48.128;11.628;2023-04-06T02:35:05;7.22;;;5.05;;
25780;SDS011;13626;48.128;11.628;2023-04-06T02:37:32;7.57;;;5.00;;
25780;SDS011;13626;48.128;11.628;2023-04-06T02:40:00;8.57;;;5.05;;
25780;SDS011;13626;48.128;11.628;2023-04-06T02:42:27;9.93;;;5.18;;
25780;SDS011;13626;48.128;11.628;2023-04-06T02:44:54;8.50;;;5.40;;
25780;SDS011;13626;48.128;11.628;2023-04-06T02:47:21;12.43;;;7.60;;
25780;SDS011;13626;48.128;11.628;2023-04-06T02:49:48;7.32;;;5.28;;
25780;SDS011;13626;48.128;11.628;2023-04-06T02:52:16;10.63;;;5.15;;
25780;SDS011;13626;48.128;11.628;2023-04-06T02:54:44;10.60;;;5.78;;
25780;SDS011;13626;48.128;11.628;2023-04-06T02:57:11;7.95;;;4.93;;
25780;SDS011;13626;48.128;11.628;2023-04-06T02:59:38;10.80;;;5.85;;
25780;SDS011;13626;48.128;11.628;2023-04-06T03:02:06;7.13;;;4.93;;
25780;SDS011;13626;48.128;11.628;2023-04-06T03:04:33;8.23;;;5.43;;
25780;SDS011;13626;48.128;11.628;2023-04-06T03:07:00;15.15;;;5.95;;
25780;SDS011;13626;48.128;11.628;2023-04-06T03:09:27;7.85;;;5.57;;
25780;SDS011;13626;48.128;11.628;2023-04-06T03:11:55;7.13;;;5.40;;
25780;SDS011;13626;48.128;11.628;2023-04-06T03:14:22;11.05;;;5.75;;
25780;SDS011;13626;48.128;11.628;2023-04-06T03:16:49;9.40;;;5.50;;
25780;SDS011;13626;48.128;11.628;2023-04-06T03:19:16;8.60;;;5.32;;
25780;SDS011;13626;48.128;11.628;2023-04-06T03:21:43;6.10;;;4.80;;
25780;SDS011;13626;48.128;11.628;2023-04-06T03:24:11;10.02;;;5.57;;
25780;SDS011;13626;48.128;11.628;2023-04-06T03:26:41;7.00;;;4.90;;
25780;SDS011;13626;48.128;11.628;2023-04-06T03:29:08;10.30;;;5.50;;
25780;SDS011;13626;48.128;11.628;2023-04-06T03:31:36;9.23;;;5.47;;
25780;SDS011;13626;48.128;11.628;2023-04-06T03:34:03;9.07;;;5.70;;
25780;SDS011;13626;48.128;11.628;2023-04-06T03:36:30;8.93;;;4.65;;
25780;SDS011;13626;48.128;11.628;2023-04-06T03:38:57;9.25;;;5.63;;
25780;SDS011;13626;48.128;11.628;2023-04-06T03:41:25;8.45;;;5.63;;
25780;SDS011;13626;48.128;11.628;2023-04-06T03:43:52;8.45;;;4.95;;
25780;SDS011;13626;48.128;11.628;2023-04-06T03:46:19;7.68;;;5.40;;
25780;SDS011;13626;48.128;11.628;2023-04-06T03:48:48;9.38;;;5.38;;
25780;SDS011;13626;48.128;11.628;2023-04-06T03:51:15;8.43;;;5.45;;
25780;SDS011;13626;48.128;11.628;2023-04-06T03:53:42;7.50;;;5.20;;
25780;SDS011;13626;48.128;11.628;2023-04-06T03:56:09;7.38;;;5.28;;
25780;SDS011;13626;48.128;11.628;2023-04-06T03:58:37;9.80;;;5.45;;
25780;SDS011;13626;48.128;11.628;2023-04-06T04:01:04;9.05;;;5.25;;
25780;SDS011;13626;48.128;11.628;2023-04-06T04:03:31;8.27;;;5.50;;
25780;SDS011;13626;48.128;11.628;2023-04-06T04:05:58;11.32;;;6.00;;
25780;SDS011;13626;48.128;11.628;2023-04-06T04:08:26;9.02;;;5.47;;
25780;SDS011;13626;48.128;11.628;2023-04-06T04:10:53;13.65;;;6.10;;
25780;SDS011;13626;48.128;11.628;2023-04-06T04:13:20;8.00;;;5.55;;
25780;SDS011;13626;48.128;11.628;2023-04-06T04:15:48;8.40;;;6.15;;
25780;SDS011;13626;48.128;11.628;2023-04-06T04:18:15;7.25;;;5.20;;
25780;SDS011;13626;48.128;11.628;2023-04-06T04:20:42;6.03;;;5.32;;
25780;SDS011;13626;48.128;11.628;2023-04-06T04:23:10;11.23;;;5.72;;
25780;SDS011;13626;48.128;11.628;2023-04-06T04:25:37;14.38;;;5.88;;
25780;SDS011;13626;48.128;11.628;2023-04-06T04:28:04;10.45;;;5.68;;
25780;SDS011;13626;48.128;11.628;2023-04-06T04:30:31;7.88;;;5.80;;
25780;SDS011;13626;48.128;11.628;2023-04-06T04:32:58;8.90;;;5.45;;
25780;SDS011;13626;48.128;11.628;2023-04-06T04:35:26;9.10;;;5.80;;
25780;SDS011;13626;48.128;11.628;2023-04-06T04:37:53;12.65;;;6.07;;
25780;SDS011;13626;48.128;11.628;2023-04-06T04:40:21;8.85;;;5.30;;
25780;SDS011;13626;48.128;11.628;2023-04-06T04:42:48;10.55;;;6.10;;
25780;SDS011;13626;48.128;11.628;2023-04-06T04:45:17;9.55;;;5.45;;
25780;SDS011;13626;48.128;11.628;2023-04-06T04:47:44;9.82;;;5.93;;
25780;SDS011;13626;48.128;11.628;2023-04-06T04:50:11;10.90;;;5.90;;
25780;SDS011;13626;48.128;11.628;2023-04-06T04:52:38;11.45;;;6.10;;
25780;SDS011;13626;48.128;11.628;2023-04-06T04:55:06;9.80;;;5.95;;
25780;SDS011;13626;48.128;11.628;2023-04-06T04:57:33;12.73;;;6.40;;
25780;SDS011;13626;48.128;11.628;2023-04-06T05:00:00;8.60;;;5.38;;
25780;SDS011;13626;48.128;11.628;2023-04-06T05:02:28;8.30;;;5.50;;
25780;SDS011;13626;48.128;11.628;2023-04-06T05:04:55;10.05;;;5.82;;
25780;SDS011;13626;48.128;11.628;2023-04-06T05:07:23;9.88;;;5.85;;
25780;SDS011;13626;48.128;11.628;2023-04-06T05:09:50;8.57;;;5.53;;
25780;SDS011;13626;48.128;11.628;2023-04-06T05:12:18;13.23;;;5.85;;
25780;SDS011;13626;48.128;11.628;2023-04-06T05:14:45;8.68;;;5.72;;
25780;SDS011;13626;48.128;11.628;2023-04-06T05:17:13;11.57;;;5.72;;
25780;SDS011;13626;48.128;11.628;2023-04-06T05:19:40;8.43;;;6.05;;
25780;SDS011;13626;48.128;11.628;2023-04-06T05:22:07;9.45;;;5.43;;
25780;SDS011;13626;48.128;11.628;2023-04-06T05:24:34;10.50;;;5.40;;
25780;SDS011;13626;48.128;11.628;2023-04-06T05:27:02;10.20;;;5.70;;
25780;SDS011;13626;48.128;11.628;2023-04-06T05:29:29;7.65;;;5.30;;
25780;SDS011;13626;48.128;11.628;2023-04-06T05:31:56;9.70;;;5.90;;
25780;SDS011;13626;48.128;11.628;2023-04-06T05:34:23;8.55;;;5.70;;
25780;SDS011;13626;48.128;11.628;2023-04-06T05:36:50;9.82;;;5.47;;
25780;SDS011;13626;48.128;11.628;2023-04-06T05:39:18;8.80;;;5.75;;
25780;SDS011;13626;48.128;11.628;2023-04-06T05:41:45;7.90;;;5.80;;
25780;SDS011;13626;48.128;11.628;2023-04-06T05:44:12;9.82;;;5.65;;
25780;SDS011;13626;48.128;11.628;2023-04-06T05:46:40;9.40;;;5.60;;
25780;SDS011;13626;48.128;11.628;2023-04-06T05:49:07;8.88;;;5.45;;
25780;SDS011;13626;48.128;11.628;2023-04-06T05:51:35;10.93;;;6.00;;
25780;SDS011;13626;48.128;11.628;2023-04-06T05:54:02;9.02;;;6.03;;
25780;SDS011;13626;48.128;11.628;2023-04-06T05:56:29;10.52;;;5.88;;
25780;SDS011;13626;48.128;11.628;2023-04-06T05:58:58;7.50;;;5.47;;
25780;SDS011;13626;48.128;11.628;2023-04-06T06:01:25;9.77;;;6.40;;
25780;SDS011;13626;48.128;11.628;2023-04-06T06:03:53;8.68;;;5.80;;
25780;SDS011;13626;48.128;11.628;2023-04-06T06:06:20;9.50;;;5.85;;
25780;SDS011;13626;48.128;11.628;2023-04-06T06:08:47;7.88;;;6.03;;
25780;SDS011;13626;48.128;11.628;2023-04-06T06:11:14;12.10;;;5.40;;
25780;SDS011;13626;48.128;11.628;2023-04-06T06:13:41;8.38;;;5.32;;
25780;SDS011;13626;48.128;11.628;2023-04-06T06:16:08;8.02;;;5.15;;
25780;SDS011;13626;48.128;11.628;2023-04-06T06:18:36;11.05;;;5.35;;
25780;SDS011;13626;48.128;11.628;2023-04-06T06:21:03;7.38;;;4.97;;
25780;SDS011;13626;48.128;11.628;2023-04-06T06:23:31;10.27;;;4.70;;
25780;SDS011;13626;48.128;11.628;2023-04-06T06:25:58;10.10;;;5.00;;
25780;SDS011;13626;48.128;11.628;2023-04-06T06:28:27;7.78;;;4.93;;
25780;SDS011;13626;48.128;11.628;2023-04-06T06:30:54;10.43;;;6.20;;
25780;SDS011;13626;48.128;11.628;2023-04-06T06:33:21;9.05;;;5.63;;
25780;SDS011;13626;48.128;11.628;2023-04-06T06:35:48;8.77;;;4.88;;
25780;SDS011;13626;48.128;11.628;2023-04-06T06:38:16;8.50;;;5.18;;
25780;SDS011;13626;48.128;11.628;2023-04-06T06:40:44;6.70;;;4.75;;
25780;SDS011;13626;48.128;11.628;2023-04-06T06:43:12;8.45;;;5.45;;
25780;SDS011;13626;48.128;11.628;2023-04-06T06:45:39;10.48;;;5.45;;
25780;SDS011;13626;48.128;11.628;2023-04-06T06:48:06;10.65;;;5.82;;
25780;SDS011;13626;48.128;11.628;2023-04-06T06:50:33;7.35;;;5.20;;
25780;SDS011;13626;48.128;11.628;2023-04-06T06:53:01;7.97;;;5.55;;
25780;SDS011;13626;48.128;11.628;2023-04-06T06:55:28;10.40;;;5.65;;
25780;SDS011;13626;48.128;11.628;2023-04-06T06:57:55;8.15;;;5.68;;
25780;SDS011;13626;48.128;11.628;2023-04-06T07:00:22;7.63;;;5.28;;
25780;SDS011;13626;48.128;11.628;2023-04-06T07:02:50;8.52;;;5.20;;
25780;SDS011;13626;48.128;11.628;2023-04-06T07:05:17;6.63;;;5.13;;
25780;SDS011;13626;48.128;11.628;2023-04-06T07:07:54;6.93;;;5.25;;
25780;SDS011;13626;48.128;11.628;2023-04-06T07:10:22;7.22;;;5.75;;
25780;SDS011;13626;48.128;11.628;2023-04-06T07:12:49;7.50;;;5.30;;
25780;SDS011;13626;48.128;11.628;2023-04-06T07:15:16;8.25;;;5.53;;
25780;SDS011;13626;48.128;11.628;2023-04-06T07:17:44;7.45;;;6.20;;
25780;SDS011;13626;48.128;11.628;2023-04-06T07:20:11;9.00;;;6.10;;
25780;SDS011;13626;48.128;11.628;2023-04-06T07:22:39;9.55;;;6.50;;
25780;SDS011;13626;48.128;11.628;2023-04-06T07:25:07;7.72;;;5.85;;
25780;SDS011;13626;48.128;11.628;2023-04-06T07:27:34;8.32;;;6.82;;
25780;SDS011;13626;48.128;11.628;2023-04-06T07:30:01;10.23;;;6.38;;
25780;SDS011;13626;48.128;11.628;2023-04-06T07:32:29;10.30;;;5.88;;
25780;SDS011;13626;48.128;11.628;2023-04-06T07:34:57;8.95;;;6.40;;
25780;SDS011;13626;48.128;11.628;2023-04-06T07:37:24;11.70;;;6.85;;
25780;SDS011;13626;48.128;11.628;2023-04-06T07:39:51;8.02;;;6.10;;
25780;SDS011;13626;48.128;11.628;2023-04-06T07:42:19;7.55;;;5.93;;
25780;SDS011;13626;48.128;11.628;2023-04-06T07:44:47;8.40;;;6.53;;
25780;SDS011;13626;48.128;11.628;2023-04-06T07:47:15;7.28;;;5.55;;
25780;SDS011;13626;48.128;11.628;2023-04-06T07:49:42;7.75;;;5.90;;
25780;SDS011;13626;48.128;11.628;2023-04-06T07:52:09;7.43;;;5.38;;
25780;SDS011;13626;48.128;11.628;2023-04-06T07:54:36;9.65;;;6.45;;
25780;SDS011;13626;48.128;11.628;2023-04-06T07:57:03;8.18;;;6.13;;
25780;SDS011;13626;48.128;11.628;2023-04-06T07:59:30;6.15;;;5.47;;
25780;SDS011;13626;48.128;11.628;2023-04-06T08:01:58;9.13;;;6.53;;
25780;SDS011;13626;48.128;11.628;2023-04-06T08:04:25;8.23;;;6.60;;
25780;SDS011;13626;48.128;11.628;2023-04-06T08:06:52;8.82;;;6.13;;
25780;SDS011;13626;48.128;11.628;2023-04-06T08:09:20;10.07;;;7.10;;
25780;SDS011;13626;48.128;11.628;2023-04-06T08:11:47;8.98;;;7.22;;
25780;SDS011;13626;48.128;11.628;2023-04-06T08:14:15;8.70;;;6.50;;
25780;SDS011;13626;48.128;11.628;2023-04-06T08:16:42;8.02;;;6.07;;
25780;SDS011;13626;48.128;11.628;2023-04-06T08:19:09;7.90;;;6.88;;
25780;SDS011;13626;48.128;11.628;2023-04-06T08:21:37;8.95;;;6.78;;
25780;SDS011;13626;48.128;11.628;2023-04-06T08:24:06;8.30;;;6.97;;
25780;SDS011;13626;48.128;11.628;2023-04-06T08:26:33;7.90;;;7.10;;
25780;SDS011;13626;48.128;11.628;2023-04-06T08:29:01;8.60;;;7.07;;
25780;SDS011;13626;48.128;11.628;2023-04-06T08:31:30;6.85;;;6.15;;
25780;SDS011;13626;48.128;11.628;2023-04-06T08:33:57;9.75;;;7.20;;
25780;SDS011;13626;48.128;11.628;2023-04-06T08:36:24;7.65;;;6.75;;
25780;SDS011;13626;48.128;11.628;2023-04-06T08:38:52;10.55;;;6.57;;
25780;SDS011;13626;48.128;11.628;2023-04-06T08:41:20;8.57;;;6.38;;
25780;SDS011;13626;48.128;11.628;2023-04-06T08:43:52;7.93;;;6.82;;
25780;SDS011;13626;48.128;11.628;2023-04-06T08:46:21;7.53;;;6.67;;
25780;SDS011;13626;48.128;11.628;2023-04-06T08:48:48;7.53;;;6.68;;
25780;SDS011;13626;48.128;11.628;2023-04-06T08:51:16;6.72;;;6.13;;
25780;SDS011;13626;48.128;11.628;2023-04-06T08:53:44;7.15;;;6.45;;
25780;SDS011;13626;48.128;11.628;2023-04-06T08:56:11;7.55;;;6.40;;
25780;SDS011;13626;48.128;11.628;2023-04-06T08:58:39;7.03;;;6.28;;
25780;SDS011;13626;48.128;11.628;2023-04-06T09:01:07;9.52;;;6.75;;
25780;SDS011;13626;48.128;11.628;2023-04-06T09:03:38;7.38;;;6.63;;
25780;SDS011;13626;48.128;11.628;2023-04-06T09:06:06;8.80;;;6.53;;
25780;SDS011;13626;48.128;11.628;2023-04-06T09:08:34;8.18;;;7.05;;
25780;SDS011;13626;48.128;11.628;2023-04-06T09:11:02;6.65;;;6.03;;
25780;SDS011;13626;48.128;11.628;2023-04-06T09:13:30;7.75;;;6.93;;
25780;SDS011;13626;48.128;11.628;2023-04-06T09:16:01;8.52;;;7.18;;
25780;SDS011;13626;48.128;11.628;2023-04-06T09:18:31;9.20;;;7.00;;
25780;SDS011;13626;48.128;11.628;2023-04-06T09:21:02;8.25;;;6.78;;
25780;SDS011;13626;48.128;11.628;2023-04-06T09:23:30;8.15;;;7.35;;
25780;SDS011;13626;48.128;11.628;2023-04-06T09:26:04;7.93;;;7.15;;
25780;SDS011;13626;48.128;11.628;2023-04-06T09:31:12;7.63;;;6.85;;
25780;SDS011;13626;48.128;11.628;2023-04-06T09:33:44;8.27;;;7.30;;
25780;SDS011;13626;48.128;11.628;2023-04-06T09:36:12;7.95;;;7.15;;
25780;SDS011;13626;48.128;11.628;2023-04-06T09:38:52;8.52;;;6.78;;
25780;SDS011;13626;48.128;11.628;2023-04-06T09:41:24;9.65;;;7.43;;
25780;SDS011;13626;48.128;11.628;2023-04-06T09:43:52;8.10;;;7.07;;
25780;SDS011;13626;48.128;11.628;2023-04-06T09:46:20;8.30;;;7.50;;
25780;SDS011;13626;48.128;11.628;2023-04-06T09:48:49;8.77;;;7.65;;
25780;SDS011;13626;48.128;11.628;2023-04-06T09:51:16;8.60;;;7.70;;
25780;SDS011;13626;48.128;11.628;2023-04-06T09:53:45;8.27;;;7.47;;
25780;SDS011;13626;48.128;11.628;2023-04-06T09:56:15;7.18;;;6.45;;
25780;SDS011;13626;48.128;11.628;2023-04-06T09:58:44;8.27;;;7.47;;
25780;SDS011;13626;48.128;11.628;2023-04-06T10:01:15;8.25;;;7.45;;
25780;SDS011;13626;48.128;11.628;2023-04-06T10:06:30;8.93;;;8.02;;
25780;SDS011;13626;48.128;11.628;2023-04-06T10:08:59;11.02;;;7.95;;
25780;SDS011;13626;48.128;11.628;2023-04-06T10:11:28;8.25;;;7.32;;
25780;SDS011;13626;48.128;11.628;2023-04-06T10:13:56;9.23;;;7.40;;
25780;SDS011;13626;48.128;11.628;2023-04-06T10:16:23;8.30;;;7.50;;
25780;SDS011;13626;48.128;11.628;2023-04-06T10:18:52;8.57;;;7.13;;
25780;SDS011;13626;48.128;11.628;2023-04-06T10:21:23;10.20;;;8.05;;
25780;SDS011;13626;48.128;11.628;2023-04-06T10:23:52;8.82;;;8.00;;
25780;SDS011;13626;48.128;11.628;2023-04-06T10:26:21;7.80;;;7.10;;
25780;SDS011;13626;48.128;11.628;2023-04-06T10:28:49;8.18;;;7.25;;
25780;SDS011;13626;48.128;11.628;2023-04-06T10:31:26;9.45;;;7.40;;
25780;SDS011;13626;48.128;11.628;2023-04-06T10:33:54;7.85;;;6.95;;
25780;SDS011;13626;48.128;11.628;2023-04-06T10:36:22;9.73;;;7.35;;
25780;SDS011;13626;48.128;11.628;2023-04-06T10:38:54;10.13;;;6.90;;
25780;SDS011;13626;48.128;11.628;2023-04-06T10:41:21;10.18;;;7.30;;
25780;SDS011;13626;48.128;11.628;2023-04-06T10:43:57;7.60;;;6.75;;
25780;SDS011;13626;48.128;11.628;2023-04-06T10:46:25;8.07;;;6.95;;
25780;SDS011;13626;48.128;11.628;2023-04-06T10:48:52;8.82;;;7.18;;
25780;SDS011;13626;48.128;11.628;2023-04-06T10:51:23;10.45;;;6.93;;
25780;SDS011;13626;48.128;11.628;2023-04-06T10:53:53;9.80;;;6.55;;
25780;SDS011;13626;48.128;11.628;2023-04-06T10:56:22;6.95;;;6.18;;
25780;SDS011;13626;48.128;11.628;2023-04-06T10:58:51;9.10;;;6.57;;
25780;SDS011;13626;48.128;11.628;2023-04-06T11:01:20;7.00;;;5.85;;
25780;SDS011;13626;48.128;11.628;2023-04-06T11:03:49;7.60;;;6.43;;
25780;SDS011;13626;48.128;11.628;2023-04-06T11:06:23;9.23;;;6.80;;
25780;SDS011;13626;48.128;11.628;2023-04-06T11:08:51;8.65;;;6.10;;
25780;SDS011;13626;48.128;11.628;2023-04-06T11:11:19;7.95;;;6.65;;
25780;SDS011;13626;48.128;11.628;2023-04-06T11:16:18;8.25;;;6.55;;
25780;SDS011;13626;48.128;11.628;2023-04-06T11:21:40;8.50;;;6.80;;
25780;SDS011;13626;48.128;11.628;2023-04-06T11:24:10;9.48;;;6.97;;
25780;SDS011;13626;48.128;11.628;2023-04-06T11:26:38;8.20;;;6.55;;
25780;SDS011;13626;48.128;11.628;2023-04-06T11:29:06;7.88;;;6.57;;
25780;SDS011;13626;48.128;11.628;2023-04-06T11:31:37;7.38;;;6.43;;
25780;SDS011;13626;48.128;11.628;2023-04-06T11:34:16;9.85;;;6.57;;
25780;SDS011;13626;48.128;11.628;2023-04-06T11:36:44;8.38;;;6.55;;
25780;SDS011;13626;48.128;11.628;2023-04-06T11:39:12;7.43;;;6.50;;
25780;SDS011;13626;48.128;11.628;2023-04-06T11:41:40;8.88;;;6.72;;
25780;SDS011;13626;48.128;11.628;2023-04-06T11:44:07;9.93;;;6.70;;
25780;SDS011;13626;48.128;11.628;2023-04-06T11:46:34;8.68;;;6.38;;
25780;SDS011;13626;48.128;11.628;2023-04-06T11:49:01;7.65;;;6.20;;
25780;SDS011;13626;48.128;11.628;2023-04-06T11:51:29;9.32;;;6.57;;
25780;SDS011;13626;48.128;11.628;2023-04-06T11:53:56;8.55;;;6.63;;
25780;SDS011;13626;48.128;11.628;2023-04-06T11:56:27;8.13;;;6.57;;
25780;SDS011;13626;48.128;11.628;2023-04-06T11:58:55;8.90;;;5.85;;
25780;SDS011;13626;48.128;11.628;2023-04-06T12:01:25;8.60;;;6.60;;
25780;SDS011;13626;48.128;11.628;2023-04-06T12:03:52;8.02;;;6.40;;
25780;SDS011;13626;48.128;11.628;2023-04-06T12:06:20;10.13;;;6.72;;
25780;SDS011;13626;48.128;11.628;2023-04-06T12:08:47;9.13;;;6.13;;
25780;SDS011;13626;48.128;11.628;2023-04-06T12:11:14;9.00;;;6.60;;
25780;SDS011;13626;48.128;11.628;2023-04-06T12:13:41;7.82;;;6.25;;
25780;SDS011;13626;48.128;11.628;2023-04-06T12:16:08;8.93;;;6.63;;
25780;SDS011;13626;48.128;11.628;2023-04-06T12:18:36;7.35;;;5.50;;
25780;SDS011;13626;48.128;11.628;2023-04-06T12:21:03;8.38;;;5.82;;
25780;SDS011;13626;48.128;11.628;2023-04-06T12:23:31;11.07;;;6.22;;
25780;SDS011;13626;48.128;11.628;2023-04-06T12:25:58;8.02;;;5.88;;
25780;SDS011;13626;48.128;11.628;2023-04-06T12:28:27;9.65;;;6.97;;
25780;SDS011;13626;48.128;11.628;2023-04-06T12:30:54;8.07;;;5.95;;
25780;SDS011;13626;48.128;11.628;2023-04-06T12:33:21;11.82;;;7.43;;
25780;SDS011;13626;48.128;11.628;2023-04-06T12:35:49;10.43;;;7.28;;
25780;SDS011;13626;48.128;11.628;2023-04-06T12:38:16;7.43;;;6.38;;
25780;SDS011;13626;48.128;11.628;2023-04-06T12:40:43;8.82;;;6.53;;
25780;SDS011;13626;48.128;11.628;2023-04-06T12:43:11;9.15;;;6.75;;
25780;SDS011;13626;48.128;11.628;2023-04-06T12:45:39;9.75;;;5.50;;
25780;SDS011;13626;48.128;11.628;2023-04-06T12:48:07;6.50;;;5.30;;
25780;SDS011;13626;48.128;11.628;2023-04-06T12:50:34;7.82;;;5.32;;
25780;SDS011;13626;48.128;11.628;2023-04-06T12:53:01;9.27;;;5.28;;
25780;SDS011;13626;48.128;11.628;2023-04-06T12:55:29;8.55;;;5.13;;
25780;SDS011;13626;48.128;11.628;2023-04-06T12:57:57;7.20;;;5.45;;
25780;SDS011;13626;48.128;11.628;2023-04-06T13:00:24;6.07;;;5.40;;
25780;SDS011;13626;48.128;11.628;2023-04-06T13:02:52;8.02;;;5.55;;
25780;SDS011;13626;48.128;11.628;2023-04-06T13:05:19;6.93;;;5.80;;
25780;SDS011;13626;48.128;11.628;2023-04-06T13:07:47;7.45;;;5.97;;
25780;SDS011;13626;48.128;11.628;2023-04-06T13:10:14;7.53;;;5.85;;
25780;SDS011;13626;48.128;11.628;2023-04-06T13:12:41;7.90;;;5.07;;
25780;SDS011;13626;48.128;11.628;2023-04-06T13:15:08;8.02;;;5.68;;
25780;SDS011;13626;48.128;11.628;2023-04-06T13:17:36;6.95;;;5.35;;
25780;SDS011;13626;48.128;11.628;2023-04-06T13:20:03;10.75;;;5.50;;
25780;SDS011;13626;48.128;11.628;2023-04-06T13:22:32;6.97;;;5.22;;
25780;SDS011;13626;48.128;11.628;2023-04-06T13:24:59;7.55;;;5.47;;
25780;SDS011;13626;48.128;11.628;2023-04-06T13:27:26;8.93;;;5.50;;
25780;SDS011;13626;48.128;11.628;2023-04-06T13:29:54;8.18;;;5.43;;
25780;SDS011;13626;48.128;11.628;2023-04-06T13:32:21;7.25;;;5.82;;
25780;SDS011;13626;48.128;11.628;2023-04-06T13:34:48;9.38;;;5.53;;
25780;SDS011;13626;48.128;11.628;2023-04-06T13:37:15;7.65;;;5.22;;
25780;SDS011;13626;48.128;11.628;2023-04-06T13:39:43;6.25;;;5.07;;
25780;SDS011;13626;48.128;11.628;2023-04-06T13:42:10;9.38;;;5.85;;
25780;SDS011;13626;48.128;11.628;2023-04-06T13:44:37;7.45;;;5.45;;
25780;SDS011;13626;48.128;11.628;2023-04-06T13:47:04;7.60;;;5.90;;
25780;SDS011;13626;48.128;11.628;2023-04-06T13:49:32;5.97;;;5.38;;
25780;SDS011;13626;48.128;11.628;2023-04-06T13:51:59;7.88;;;5.68;;
25780;SDS011;13626;48.128;11.628;2023-04-06T13:54:26;12.38;;;5.97;;
25780;SDS011;13626;48.128;11.628;2023-04-06T13:56:54;7.40;;;5.57;;
25780;SDS011;13626;48.128;11.628;2023-04-06T13:59:21;8.85;;;5.15;;
25780;SDS011;13626;48.128;11.628;2023-04-06T14:01:48;7.05;;;5.22;;
25780;SDS011;13626;48.128;11.628;2023-04-06T14:04:15;7.32;;;5.22;;
25780;SDS011;13626;48.128;11.628;2023-04-06T14:06:44;7.50;;;5.47;;
25780;SDS011;13626;48.128;11.628;2023-04-06T14:09:11;7.05;;;5.03;;
25780;SDS011;13626;48.128;11.628;2023-04-06T14:11:38;6.30;;;5.45;;
25780;SDS011;13626;48.128;11.628;2023-04-06T14:14:06;5.88;;;4.68;;
25780;SDS011;13626;48.128;11.628;2023-04-06T14:16:33;7.97;;;5.82;;
25780;SDS011;13626;48.128;11.628;2023-04-06T14:19:00;6.53;;;5.10;;
25780;SDS011;13626;48.128;11.628;2023-04-06T14:21:28;6.15;;;5.20;;
25780;SDS011;13626;48.128;11.628;2023-04-06T14:23:56;6.50;;;5.30;;
25780;SDS011;13626;48.128;11.628;2023-04-06T14:26:25;9.50;;;5.80;;
25780;SDS011;13626;48.128;11.628;2023-04-06T14:28:52;6.25;;;5.28;;
25780;SDS011;13626;48.128;11.628;2023-04-06T14:31:19;6.93;;;5.22;;
25780;SDS011;13626;48.128;11.628;2023-04-06T14:33:47;6.45;;;5.32;;
25780;SDS011;13626;48.128;11.628;2023-04-06T14:36:14;6.65;;;5.20;;
25780;SDS011;13626;48.128;11.628;2023-04-06T14:38:41;7.93;;;5.43;;
25780;SDS011;13626;48.128;11.628;2023-04-06T14:41:14;6.93;;;4.70;;
25780;SDS011;13626;48.128;11.628;2023-04-06T14:43:41;6.55;;;5.00;;